Time,TemperatureF,DewpointF,PressureIn,WindDirection,WindDirectionDegrees,WindSpeedMPH,WindSpeedGustMPH,Humidity,HourlyPrecipIn,Conditions,Clouds,dailyrainin,SoftwareType,DateUTC
2013-04-23 00:08:00,42.6,28.4,30.27,SSE,157,2.7,-999.0,57,-99.99,,,0.00,Acu-Link.com,2013-04-23 04:08:00,
2013-04-23 00:23:00,43.0,29.2,30.27,SSE,157,2.7,-999.0,58,-99.99,,,0.00,Acu-Link.com,2013-04-23 04:23:00,
2013-04-23 00:38:00,42.6,28.9,30.27,ESE,112,3.7,-999.0,58,-99.99,,,0.00,Acu-Link.com,2013-04-23 04:38:00,
2013-04-23 00:54:00,41.7,29.3,30.26,ESE,112,1.7,-999.0,61,-99.99,,,0.00,Acu-Link.com,2013-04-23 04:54:00,
2013-04-23 01:09:00,41.5,28.7,30.26,SSE,157,4.2,-999.0,60,-99.99,,,0.00,Acu-Link.com,2013-04-23 05:09:00,
2013-04-23 01:24:00,42.1,28.8,30.26,South,180,5.3,-999.0,59,-99.99,,,0.00,Acu-Link.com,2013-04-23 05:24:00,
2013-04-23 01:39:00,41.5,29.1,30.26,ESE,112,1.1,-999.0,61,-99.99,,,0.00,Acu-Link.com,2013-04-23 05:39:00,
2013-04-23 01:54:00,41.7,30.0,30.25,SSE,157,2.7,-999.0,63,-99.99,,,0.00,Acu-Link.com,2013-04-23 05:54:00,
2013-04-23 02:09:00,41.9,29.8,30.25,East,90,2.7,-999.0,62,-99.99,,,0.00,Acu-Link.com,2013-04-23 06:09:00,
2013-04-23 02:24:00,41.2,30.7,30.25,SE,135,2.2,-999.0,66,-99.99,,,0.00,Acu-Link.com,2013-04-23 06:24:00,
2013-04-23 02:39:00,41.5,31.7,30.24,SE,135,2.2,-999.0,68,-99.99,,,0.00,Acu-Link.com,2013-04-23 06:39:00,
2013-04-23 02:54:00,41.9,30.6,30.24,SE,135,0.0,-999.0,64,-99.99,,,0.00,Acu-Link.com,2013-04-23 06:54:00,
2013-04-23 03:10:00,41.7,31.9,30.23,ESE,112,0.0,-999.0,68,-99.99,,,0.00,Acu-Link.com,2013-04-23 07:10:00,
2013-04-23 03:25:00,42.3,31.0,30.23,SSE,157,2.7,-999.0,64,-99.99,,,0.00,Acu-Link.com,2013-04-23 07:25:00,
2013-04-23 03:40:00,42.3,31.0,30.22,SE,135,0.0,-999.0,64,-99.99,,,0.00,Acu-Link.com,2013-04-23 07:40:00,
2013-04-23 03:55:00,42.4,30.7,30.22,SSE,157,2.7,-999.0,63,-99.99,,,0.00,Acu-Link.com,2013-04-23 07:55:00,
2013-04-23 04:10:00,42.3,31.4,30.22,ESE,112,1.7,-999.0,65,-99.99,,,0.00,Acu-Link.com,2013-04-23 08:10:00,
2013-04-23 04:25:00,42.1,31.2,30.21,SSE,157,3.7,-999.0,65,-99.99,,,0.00,Acu-Link.com,2013-04-23 08:25:00,
2013-04-23 04:40:00,41.7,31.2,30.22,SE,135,1.7,-999.0,66,-99.99,,,0.00,Acu-Link.com,2013-04-23 08:40:00,
2013-04-23 04:56:00,41.5,31.7,30.22,SE,135,0.0,-999.0,68,-99.99,,,0.00,Acu-Link.com,2013-04-23 08:56:00,
2013-04-23 05:11:00,41.2,31.1,30.22,South,180,1.1,-999.0,67,-99.99,,,0.00,Acu-Link.com,2013-04-23 09:11:00,
2013-04-23 05:26:00,41.2,31.5,30.21,SSE,157,1.7,-999.0,68,-99.99,,,0.00,Acu-Link.com,2013-04-23 09:26:00,
2013-04-23 05:41:00,41.2,31.5,30.21,SSE,157,0.0,-999.0,68,-99.99,,,0.00,Acu-Link.com,2013-04-23 09:41:00,
2013-04-23 05:56:00,41.2,31.5,30.21,SE,135,2.2,-999.0,68,-99.99,,,0.00,Acu-Link.com,2013-04-23 09:56:00,
2013-04-23 06:11:00,41.2,31.5,30.20,SSE,157,2.7,-999.0,68,-99.99,,,0.00,Acu-Link.com,2013-04-23 10:11:00,
2013-04-23 06:26:00,41.2,31.5,30.20,SSE,157,2.7,-999.0,68,-99.99,,,0.00,Acu-Link.com,2013-04-23 10:26:00,
2013-04-23 06:41:00,41.4,31.6,30.19,ESE,112,3.2,-999.0,68,-99.99,,,0.00,Acu-Link.com,2013-04-23 10:41:00,
2013-04-23 06:56:00,41.4,32.0,30.19,SSE,157,2.7,-999.0,69,-99.99,,,0.00,Acu-Link.com,2013-04-23 10:56:00,
2013-04-23 07:12:00,41.7,32.3,30.19,SE,135,2.7,-999.0,69,-99.99,,,0.00,Acu-Link.com,2013-04-23 11:12:00,
2013-04-23 07:27:00,41.9,32.1,30.19,ESE,112,3.2,-999.0,68,-99.99,,,0.00,Acu-Link.com,2013-04-23 11:27:00,
2013-04-23 07:42:00,42.1,32.3,30.19,SSE,157,1.1,-999.0,68,-99.99,,,0.00,Acu-Link.com,2013-04-23 11:42:00,
2013-04-23 07:57:00,42.8,32.6,30.19,SSE,157,1.1,-999.0,67,-99.99,,,0.00,Acu-Link.com,2013-04-23 11:57:00,
2013-04-23 08:12:00,43.0,32.8,30.19,NE,45,3.2,-999.0,67,-99.99,,,0.00,Acu-Link.com,2013-04-23 12:12:00,
2013-04-23 08:27:00,43.9,33.7,30.19,SE,135,2.2,-999.0,67,-99.99,,,0.00,Acu-Link.com,2013-04-23 12:27:00,
2013-04-23 08:42:00,43.5,33.3,30.18,SSE,157,3.2,-999.0,67,-99.99,,,0.00,Acu-Link.com,2013-04-23 12:42:00,
2013-04-23 08:57:00,44.4,34.1,30.18,South,180,5.3,-999.0,67,-99.99,,,0.00,Acu-Link.com,2013-04-23 12:57:00,
2013-04-23 09:12:00,44.4,33.8,30.18,NE,45,3.2,-999.0,66,-99.99,,,0.00,Acu-Link.com,2013-04-23 13:12:00,
2013-04-23 09:28:00,44.4,33.8,30.17,SSE,157,3.7,-999.0,66,-99.99,,,0.00,Acu-Link.com,2013-04-23 13:28:00,
2013-04-23 09:43:00,46.8,35.3,30.16,SSE,157,2.7,-999.0,64,-99.99,,,0.00,Acu-Link.com,2013-04-23 13:43:00,
2013-04-23 09:58:00,46.0,34.5,30.16,ESE,112,2.2,-999.0,64,-99.99,,,0.00,Acu-Link.com,2013-04-23 13:58:00,
2013-04-23 10:13:00,47.1,34.4,30.15,South,180,3.2,-999.0,61,-99.99,,,0.00,Acu-Link.com,2013-04-23 14:13:00,
2013-04-23 10:28:00,48.2,34.6,30.14,South,180,2.7,-999.0,59,-99.99,,,0.00,Acu-Link.com,2013-04-23 14:28:00,
2013-04-23 10:43:00,49.6,35.9,30.14,NNE,22,1.7,-999.0,59,-99.99,,,0.00,Acu-Link.com,2013-04-23 14:43:00,
2013-04-23 10:58:00,48.4,34.7,30.13,South,180,4.2,-999.0,59,-99.99,,,0.00,Acu-Link.com,2013-04-23 14:58:00,
2013-04-23 11:13:00,48.7,35.0,30.12,SSE,157,3.2,-999.0,59,-99.99,,,0.00,Acu-Link.com,2013-04-23 15:13:00,
2013-04-23 11:28:00,51.1,36.4,30.11,SE,135,4.7,-999.0,57,-99.99,,,0.00,Acu-Link.com,2013-04-23 15:28:00,
2013-04-23 11:44:00,52.2,37.0,30.10,ENE,67,2.2,-999.0,56,-99.99,,,0.00,Acu-Link.com,2013-04-23 15:44:00,
2013-04-23 11:59:00,52.2,37.4,30.10,SSE,157,4.7,-999.0,57,-99.99,,,0.00,Acu-Link.com,2013-04-23 15:59:00,
2013-04-23 12:14:00,53.1,38.3,30.09,West,270,2.7,-999.0,57,-99.99,,,0.00,Acu-Link.com,2013-04-23 16:14:00,
2013-04-23 12:29:00,53.1,37.4,30.09,East,90,5.3,-999.0,55,-99.99,,,0.00,Acu-Link.com,2013-04-23 16:29:00,
2013-04-23 12:44:00,54.0,36.8,30.09,SE,135,3.2,-999.0,52,-99.99,,,0.00,Acu-Link.com,2013-04-23 16:44:00,
2013-04-23 12:59:00,53.4,36.7,30.09,NE,45,2.2,-999.0,53,-99.99,,,0.00,Acu-Link.com,2013-04-23 16:59:00,
2013-04-23 13:14:00,55.9,37.5,30.07,SSE,157,3.7,-999.0,50,-99.99,,,0.00,Acu-Link.com,2013-04-23 17:14:00,
2013-04-23 13:29:00,56.3,38.4,30.08,South,180,3.7,-999.0,51,-99.99,,,0.00,Acu-Link.com,2013-04-23 17:29:00,
2013-04-23 13:44:00,56.7,37.2,30.08,ESE,112,6.8,-999.0,48,-99.99,,,0.00,Acu-Link.com,2013-04-23 17:44:00,
2013-04-23 14:00:00,56.8,37.3,30.07,SSE,157,2.2,-999.0,48,-99.99,,,0.00,Acu-Link.com,2013-04-23 18:00:00,
2013-04-23 14:15:00,59.0,38.8,30.05,ESE,112,4.7,-999.0,47,-99.99,,,0.00,Acu-Link.com,2013-04-23 18:15:00,
2013-04-23 14:30:00,57.6,38.1,30.05,SSE,157,6.8,-999.0,48,-99.99,,,0.00,Acu-Link.com,2013-04-23 18:30:00,
2013-04-23 14:45:00,59.0,37.1,30.04,SSE,157,4.2,-999.0,44,-99.99,,,0.00,Acu-Link.com,2013-04-23 18:45:00,
2013-04-23 15:00:00,59.2,37.3,30.03,South,180,1.7,-999.0,44,-99.99,,,0.00,Acu-Link.com,2013-04-23 19:00:00,
2013-04-23 15:15:00,59.5,37.6,30.02,SE,135,2.2,-999.0,44,-99.99,,,0.00,Acu-Link.com,2013-04-23 19:15:00,
2013-04-23 15:30:00,60.3,40.5,30.01,SSE,157,3.2,-999.0,48,-99.99,,,0.00,Acu-Link.com,2013-04-23 19:30:00,
2013-04-23 15:45:00,60.6,38.6,30.01,ESE,112,3.7,-999.0,44,-99.99,,,0.00,Acu-Link.com,2013-04-23 19:45:00,
2013-04-23 16:00:00,59.7,37.2,29.99,East,90,2.7,-999.0,43,-99.99,,,0.00,Acu-Link.com,2013-04-23 20:00:00,
2013-04-23 16:16:00,61.0,38.9,29.97,SSE,157,5.3,-999.0,44,-99.99,,,0.00,Acu-Link.com,2013-04-23 20:16:00,
2013-04-23 16:31:00,60.3,38.3,29.97,South,180,5.8,-999.0,44,-99.99,,,0.00,Acu-Link.com,2013-04-23 20:31:00,
2013-04-23 16:46:00,61.0,38.9,29.96,SE,135,4.2,-999.0,44,-99.99,,,0.00,Acu-Link.com,2013-04-23 20:46:00,
2013-04-23 17:01:00,60.8,37.6,29.95,ESE,112,3.7,-999.0,42,-99.99,,,0.00,Acu-Link.com,2013-04-23 21:01:00,
2013-04-23 17:16:00,62.1,37.5,29.94,ENE,67,4.2,-999.0,40,-99.99,,,0.00,Acu-Link.com,2013-04-23 21:16:00,
2013-04-23 17:31:00,61.7,37.1,29.94,NNE,22,5.3,-999.0,40,-99.99,,,0.00,Acu-Link.com,2013-04-23 21:31:00,
2013-04-23 17:46:00,63.9,38.5,29.94,South,180,4.7,-999.0,39,-99.99,,,0.00,Acu-Link.com,2013-04-23 21:46:00,
2013-04-23 18:01:00,64.8,38.6,29.94,ESE,112,2.2,-999.0,38,-99.99,,,0.00,Acu-Link.com,2013-04-23 22:01:00,
2013-04-23 18:16:00,63.3,37.9,29.95,ESE,112,3.2,-999.0,39,-99.99,,,0.00,Acu-Link.com,2013-04-23 22:16:00,
2013-04-23 18:32:00,63.3,37.9,29.94,SSE,157,4.2,-999.0,39,-99.99,,,0.00,Acu-Link.com,2013-04-23 22:32:00,
2013-04-23 18:47:00,62.2,36.9,29.95,SSE,157,3.2,-999.0,39,-99.99,,,0.00,Acu-Link.com,2013-04-23 22:47:00,
2013-04-23 19:02:00,58.8,38.1,29.94,SSE,157,2.7,-999.0,46,-99.99,,,0.00,Acu-Link.com,2013-04-23 23:02:00,
2013-04-23 19:17:00,57.0,35.9,29.94,ESE,112,2.2,-999.0,45,-99.99,,,0.00,Acu-Link.com,2013-04-23 23:17:00,
2013-04-23 19:32:00,55.6,38.3,29.94,SE,135,0.0,-999.0,52,-99.99,,,0.00,Acu-Link.com,2013-04-23 23:32:00,
2013-04-23 19:47:00,53.8,37.5,29.94,ENE,67,0.0,-999.0,54,-99.99,,,0.00,Acu-Link.com,2013-04-23 23:47:00,
2013-04-23 20:02:00,53.1,36.4,29.94,East,90,0.0,-999.0,53,-99.99,,,0.00,Acu-Link.com,2013-04-24 00:02:00,
2013-04-23 20:17:00,51.3,36.6,29.93,NE,45,0.0,-999.0,57,-99.99,,,0.00,Acu-Link.com,2013-04-24 00:17:00,
2013-04-23 20:32:00,50.0,37.9,29.94,SE,135,1.7,-999.0,63,-99.99,,,0.00,Acu-Link.com,2013-04-24 00:32:00,
2013-04-23 20:48:00,48.0,37.2,29.94,NNE,22,0.0,-999.0,66,-99.99,,,0.00,Acu-Link.com,2013-04-24 00:48:00,
2013-04-23 21:03:00,47.1,36.7,29.94,West,270,0.0,-999.0,67,-99.99,,,0.00,Acu-Link.com,2013-04-24 01:03:00,
2013-04-23 21:18:00,45.9,35.9,29.94,East,90,0.0,-999.0,68,-99.99,,,0.00,Acu-Link.com,2013-04-24 01:18:00,
2013-04-23 21:33:00,45.1,35.9,29.94,NNE,22,0.0,-999.0,70,-99.99,,,0.00,Acu-Link.com,2013-04-24 01:33:00,
2013-04-23 21:48:00,44.1,35.3,29.95,SSE,157,0.0,-999.0,71,-99.99,,,0.00,Acu-Link.com,2013-04-24 01:48:00,
2013-04-23 22:03:00,43.5,34.7,29.94,WNW,292,0.0,-999.0,71,-99.99,,,0.00,Acu-Link.com,2013-04-24 02:03:00,
2013-04-23 22:33:00,42.3,35.0,29.94,West,270,2.2,-999.0,75,-99.99,,,0.00,Acu-Link.com,2013-04-24 02:33:00,
2013-04-23 22:48:00,41.9,34.6,29.93,WNW,292,0.0,-999.0,75,-99.99,,,0.00,Acu-Link.com,2013-04-24 02:48:00,
2013-04-23 23:34:00,40.6,34.3,29.91,NE,45,0.0,-999.0,78,-99.99,,,0.00,Acu-Link.com,2013-04-24 03:34:00,
2013-04-23 23:49:00,40.3,34.0,29.91,NE,45,0.0,-999.0,78,-99.99,,,0.00,Acu-Link.com,2013-04-24 03:49:00,